Time;durP1;ratioP1;P1;durP2;ratioP2;P2;SDS_P1;SDS_P2;PMS_P1;PMS_P2;Temp;Humidity;BMP_temperature;BMP_pressure;BME280_temperature;BME280_humidity;BME280_pressure;Samples;Min_cycle;Max_cycle;Signal;HPM_P1;HPM_P2
2021/05/12 04:02:19;;;;;;;15.90;13.37;;;11.70;99.90;;;;;;5119628;23;20556;-63
2021/05/12 04:04:45;;;;;;;17.50;15.23;;;11.70;99.90;;;;;;4981501;28;20451;-64
2021/05/12 04:07:12;;;;;;;16.53;14.43;;;11.80;99.90;;;;;;4981108;28;20525;-63
2021/05/12 04:09:38;;;;;;;17.13;15.17;;;11.80;99.90;;;;;;4980240;28;20514;-64
2021/05/12 04:12:05;;;;;;;20.30;15.03;;;11.80;99.90;;;;;;4980402;28;20481;-64
2021/05/12 04:14:31;;;;;;;19.73;15.93;;;11.90;99.90;;;;;;4979958;28;20463;-64
2021/05/12 04:16:57;;;;;;;18.77;14.90;;;11.90;99.90;;;;;;4977810;28;20458;-66
2021/05/12 04:19:24;;;;;;;16.80;15.00;;;11.90;99.90;;;;;;4978890;28;20454;-65
2021/05/12 04:21:51;;;;;;;18.83;14.80;;;11.90;99.90;;;;;;4979108;28;20490;-64
2021/05/12 04:24:17;;;;;;;21.60;15.20;;;11.90;99.90;;;;;;4979184;28;20451;-65
2021/05/12 04:26:43;;;;;;;16.73;14.60;;;11.80;99.90;;;;;;4976388;28;20501;-63
2021/05/12 04:29:10;;;;;;;23.57;14.43;;;11.80;99.90;;;;;;4977154;28;20869;-64
2021/05/12 04:31:37;;;;;;;16.37;14.57;;;11.90;99.90;;;;;;4977109;28;20474;-64
2021/05/12 04:34:04;;;;;;;15.17;13.77;;;11.70;99.90;;;;;;4975904;28;20454;-64
2021/05/12 04:36:31;;;;;;;16.37;14.67;;;11.80;99.90;;;;;;4975805;28;20477;-64
2021/05/12 04:38:57;;;;;;;20.90;15.20;;;11.80;99.90;;;;;;4976387;28;20454;-64
2021/05/12 04:41:23;;;;;;;14.83;13.33;;;11.70;99.90;;;;;;4976696;28;20486;-65
2021/05/12 04:43:50;;;;;;;15.03;13.47;;;11.70;99.90;;;;;;4976564;28;20461;-65
2021/05/12 04:46:16;;;;;;;18.53;13.80;;;11.70;99.90;;;;;;4977372;28;20478;-63
2021/05/12 04:48:42;;;;;;;21.40;12.57;;;11.80;99.90;;;;;;4976465;28;20459;-65
2021/05/12 04:51:08;;;;;;;14.77;12.87;;;11.80;99.90;;;;;;4977036;28;20475;-64
2021/05/12 04:53:36;;;;;;;13.63;12.20;;;11.80;99.90;;;;;;4976498;28;20462;-64
2021/05/12 04:56:02;;;;;;;15.47;13.87;;;11.80;99.90;;;;;;4976179;28;20965;-65
2021/05/12 04:58:28;;;;;;;13.30;11.90;;;11.90;99.90;;;;;;4975948;28;20470;-63
2021/05/12 05:00:54;;;;;;;13.60;12.17;;;11.80;99.90;;;;;;4975500;28;20489;-64
2021/05/12 05:03:21;;;;;;;12.13;10.63;;;11.80;99.90;;;;;;4976015;28;20458;-63
2021/05/12 05:05:47;;;;;;;12.43;10.40;;;11.80;99.90;;;;;;4975457;28;20478;-62
2021/05/12 05:08:14;;;;;;;12.40;10.13;;;11.70;99.90;;;;;;4975224;28;20459;-65
2021/05/12 05:10:41;;;;;;;10.80;9.80;;;11.70;99.90;;;;;;4974941;28;20486;-63
2021/05/12 05:13:07;;;;;;;10.97;9.67;;;11.70;99.90;;;;;;4974532;28;20454;-63
2021/05/12 05:15:34;;;;;;;11.83;8.13;;;11.70;99.90;;;;;;4974618;28;20462;-63
2021/05/12 05:18:00;;;;;;;11.50;9.17;;;11.60;99.90;;;;;;4974461;28;20485;-63
2021/05/12 05:20:28;;;;;;;12.27;7.90;;;11.60;99.90;;;;;;4974540;28;20461;-62
2021/05/12 05:22:56;;;;;;;13.60;9.70;;;11.60;99.90;;;;;;4974778;28;20934;-63
2021/05/12 05:25:22;;;;;;;9.93;8.30;;;11.60;99.90;;;;;;4974987;28;20525;-63
2021/05/12 05:27:49;;;;;;;11.63;8.93;;;11.70;99.90;;;;;;4974710;28;20455;-62
2021/05/12 05:30:16;;;;;;;11.47;7.90;;;11.70;99.90;;;;;;4974728;28;20458;-63
2021/05/12 05:32:42;;;;;;;8.67;7.87;;;11.70;99.90;;;;;;4975957;28;20545;-63
2021/05/12 05:35:10;;;;;;;9.43;8.30;;;11.70;99.90;;;;;;4977915;28;20458;-63
2021/05/12 05:37:36;;;;;;;8.70;7.83;;;11.70;99.90;;;;;;4977571;28;20454;-63
2021/05/12 05:40:03;;;;;;;9.70;8.80;;;11.70;99.90;;;;;;4977742;28;20455;-63
2021/05/12 05:42:29;;;;;;;13.30;8.30;;;11.70;99.90;;;;;;4977736;28;20478;-63
2021/05/12 05:44:56;;;;;;;9.77;8.13;;;11.70;99.90;;;;;;4977827;28;20469;-63
2021/05/12 05:47:23;;;;;;;9.37;8.53;;;11.80;99.90;;;;;;4977526;28;20482;-63
2021/05/12 05:49:49;;;;;;;9.90;8.90;;;11.80;99.90;;;;;;4977531;28;20451;-65
2021/05/12 05:52:19;;;;;;;6.70;6.10;;;12.00;99.90;;;;;;4978604;28;20474;-64
2021/05/12 05:54:48;;;;;;;7.03;5.93;;;12.40;99.90;;;;;;4981408;28;20447;-64
2021/05/12 05:57:15;;;;;;;7.17;6.47;;;12.60;99.90;;;;;;4977887;28;20518;-64
2021/05/12 05:59:43;;;;;;;6.57;6.07;;;12.80;99.90;;;;;;4980062;28;20899;-64
2021/05/12 06:02:10;;;;;;;7.27;6.20;;;13.00;99.90;;;;;;4980313;28;20482;-64
2021/05/12 06:04:36;;;;;;;8.87;6.90;;;13.20;99.90;;;;;;4977343;28;20443;-64
2021/05/12 06:07:02;;;;;;;6.97;5.37;;;13.30;99.90;;;;;;4976775;28;20903;-64
2021/05/12 06:09:29;;;;;;;7.10;5.10;;;13.30;99.90;;;;;;4977058;28;21013;-64
2021/05/12 06:11:56;;;;;;;7.50;5.20;;;13.40;99.90;;;;;;4976902;28;20529;-64
2021/05/12 06:14:23;;;;;;;7.37;6.03;;;13.40;99.90;;;;;;4977186;28;20465;-64
2021/05/12 06:16:49;;;;;;;5.80;5.23;;;13.50;99.90;;;;;;4977063;28;20473;-64
2021/05/12 06:19:16;;;;;;;7.33;5.90;;;13.60;99.90;;;;;;4976996;28;20447;-65
2021/05/12 06:21:42;;;;;;;8.23;5.93;;;13.50;99.90;;;;;;4976961;28;20478;-64
2021/05/12 06:24:09;;;;;;;6.23;5.27;;;13.40;99.90;;;;;;4976831;28;20506;-64
2021/05/12 06:26:37;;;;;;;11.10;6.93;;;13.20;99.90;;;;;;4976706;28;20482;-64
2021/05/12 06:29:04;;;;;;;6.43;5.80;;;13.00;99.90;;;;;;4976846;28;20549;-64
2021/05/12 06:31:30;;;;;;;6.97;6.30;;;12.90;99.90;;;;;;4976934;28;20475;-64
2021/05/12 06:33:57;;;;;;;8.27;6.07;;;12.70;99.90;;;;;;4976756;28;20770;-64
2021/05/12 06:36:24;;;;;;;8.10;6.93;;;12.70;99.90;;;;;;4976550;28;20454;-64
2021/05/12 06:38:51;;;;;;;7.80;6.90;;;12.60;99.90;;;;;;4976219;28;20451;-64
2021/05/12 06:41:17;;;;;;;7.63;6.83;;;12.60;99.90;;;;;;4976580;28;20555;-64
2021/05/12 06:43:43;;;;;;;7.07;6.40;;;12.40;99.90;;;;;;4975858;28;20509;-65
2021/05/12 06:46:10;;;;;;;7.70;6.23;;;12.40;99.90;;;;;;4976692;28;20541;-64
2021/05/12 06:48:37;;;;;;;7.87;6.20;;;12.30;99.90;;;;;;4978951;28;20459;-64
2021/05/12 06:51:03;;;;;;;6.23;5.63;;;12.20;99.90;;;;;;4981542;28;20944;-64
2021/05/12 06:53:34;;;;;;;8.13;5.50;;;12.20;99.90;;;;;;4980882;28;20443;-64
2021/05/12 06:56:00;;;;;;;10.53;8.43;;;12.20;99.90;;;;;;4982102;28;20435;-64
2021/05/12 06:58:27;;;;;;;5.60;5.10;;;12.20;99.90;;;;;;4977890;28;20868;-64
2021/05/12 07:00:53;;;;;;;6.67;5.90;;;12.30;99.90;;;;;;4976768;28;20544;-64
2021/05/12 07:03:21;;;;;;;8.70;6.50;;;12.30;99.90;;;;;;4976414;28;20538;-64
2021/05/12 07:05:48;;;;;;;5.93;5.43;;;12.30;99.90;;;;;;4976126;28;20455;-64
2021/05/12 07:08:14;;;;;;;6.73;5.93;;;12.30;99.90;;;;;;4976525;28;20465;-64
2021/05/12 07:10:41;;;;;;;5.77;5.27;;;12.30;99.90;;;;;;4976200;28;20937;-64
2021/05/12 07:13:08;;;;;;;6.53;5.20;;;12.30;99.90;;;;;;4976648;28;20443;-64
2021/05/12 07:15:35;;;;;;;5.97;5.20;;;12.30;99.90;;;;;;4976368;28;20458;-64
2021/05/12 07:18:01;;;;;;;5.57;5.17;;;12.30;99.90;;;;;;4976634;28;20455;-64
2021/05/12 07:20:27;;;;;;;8.60;5.37;;;12.30;99.90;;;;;;4976056;28;20941;-64
2021/05/12 07:23:01;;;;;;;6.93;6.23;;;12.30;99.90;;;;;;4975967;28;20451;-64
2021/05/12 07:25:27;;;;;;;6.93;6.20;;;12.40;99.90;;;;;;4976019;28;20443;-64
2021/05/12 07:27:54;;;;;;;6.17;5.10;;;12.40;99.90;;;;;;4976966;28;20482;-65
2021/05/12 07:30:20;;;;;;;5.77;5.10;;;12.50;99.90;;;;;;4977609;28;20461;-63
2021/05/12 07:32:48;;;;;;;7.53;5.23;;;12.50;99.90;;;;;;4976513;28;20482;-64
2021/05/12 07:35:15;;;;;;;7.93;4.73;;;12.50;99.90;;;;;;4976330;28;20459;-64
2021/05/12 07:37:41;;;;;;;6.27;5.67;;;12.60;99.90;;;;;;4975314;28;20954;-64
2021/05/12 07:40:08;;;;;;;5.73;4.93;;;12.60;99.90;;;;;;4975449;28;20455;-64
2021/05/12 07:42:35;;;;;;;9.53;4.47;;;12.60;99.90;;;;;;4975583;28;20479;-64
2021/05/12 07:45:03;;;;;;;6.73;5.07;;;12.60;99.90;;;;;;4975564;28;20455;-65
2021/05/12 07:47:29;;;;;;;5.07;4.53;;;12.70;99.90;;;;;;4975643;28;20478;-64
2021/05/12 07:49:55;;;;;;;8.53;4.90;;;12.60;99.90;;;;;;4974968;28;20945;-63
2021/05/12 07:52:21;;;;;;;5.10;4.23;;;12.60;99.90;;;;;;4975299;28;20474;-64
2021/05/12 07:54:48;;;;;;;7.80;5.20;;;12.50;99.90;;;;;;4975566;28;20459;-64
2021/05/12 07:57:15;;;;;;;7.03;4.40;;;12.60;99.90;;;;;;4975377;28;20454;-64
2021/05/12 07:59:41;;;;;;;4.80;3.80;;;12.60;99.90;;;;;;4975303;28;20455;-64
2021/05/12 08:02:09;;;;;;;5.60;4.87;;;12.60;99.90;;;;;;4975205;28;20486;-65
2021/05/12 08:04:35;;;;;;;7.70;4.30;;;12.60;99.90;;;;;;4974991;28;20513;-65
2021/05/12 08:07:02;;;;;;;4.87;4.47;;;12.50;99.90;;;;;;4974914;28;20478;-64
2021/05/12 08:09:28;;;;;;;5.17;3.90;;;12.60;99.90;;;;;;4974620;28;20856;-65
2021/05/12 08:11:54;;;;;;;4.83;4.40;;;12.70;99.90;;;;;;4974979;28;20521;-65
2021/05/12 08:14:21;;;;;;;5.37;4.73;;;12.70;99.90;;;;;;4974707;28;20462;-63
2021/05/12 08:16:47;;;;;;;5.23;4.73;;;12.80;99.90;;;;;;4974866;28;20477;-64
2021/05/12 08:19:15;;;;;;;6.27;4.03;;;12.90;99.90;;;;;;4975087;28;20533;-64
2021/05/12 08:21:41;;;;;;;5.83;4.07;;;13.00;99.90;;;;;;4974856;28;20479;-62
2021/05/12 08:24:08;;;;;;;5.00;3.70;;;13.10;99.90;;;;;;4974549;28;20968;-63
2021/05/12 08:26:35;;;;;;;5.23;4.17;;;13.20;99.90;;;;;;4974333;28;20485;-62
2021/05/12 08:29:04;;;;;;;4.13;3.83;;;13.30;99.90;;;;;;4974841;28;20775;-65
2021/05/12 08:31:31;;;;;;;6.77;4.40;;;13.30;99.90;;;;;;4974751;28;20486;-64
2021/05/12 08:33:57;;;;;;;4.43;4.00;;;13.20;99.90;;;;;;4974681;28;20451;-63
2021/05/12 08:44:13;;;;;;;6.50;4.37;;;13.40;99.90;;;;;;5354632;23;21026;-63
2021/05/12 08:46:40;;;;;;;9.10;4.03;;;13.30;99.90;;;;;;4977517;28;20479;-63
2021/05/12 08:49:07;;;;;;;7.20;5.10;;;13.40;99.90;;;;;;4977495;28;20490;-62
2021/05/12 08:51:33;;;;;;;7.20;6.50;;;13.50;99.90;;;;;;4978839;28;20455;-62
2021/05/12 08:53:59;;;;;;;4.23;3.50;;;13.60;99.90;;;;;;4977540;28;20818;-63
2021/05/12 08:56:27;;;;;;;4.53;4.13;;;13.50;99.90;;;;;;4977624;28;20446;-62
2021/05/12 08:58:53;;;;;;;4.00;3.67;;;13.60;99.90;;;;;;4976894;28;20466;-63
2021/05/12 09:01:20;;;;;;;4.70;3.93;;;13.70;99.90;;;;;;4977683;28;20458;-62
2021/05/12 09:03:47;;;;;;;6.03;4.20;;;13.70;99.90;;;;;;4976774;28;20483;-63
2021/05/12 09:06:13;;;;;;;6.27;4.33;;;13.70;99.90;;;;;;4976749;28;20479;-63
2021/05/12 09:08:41;;;;;;;6.13;4.20;;;13.80;99.90;;;;;;4980668;28;20449;-63
2021/05/12 09:11:08;;;;;;;5.70;4.13;;;13.70;99.90;;;;;;4981646;28;20450;-63
2021/05/12 09:13:38;;;;;;;5.53;4.13;;;13.70;99.90;;;;;;4980745;28;20474;-63
2021/05/12 09:16:22;;;;;;;8.43;4.00;;;13.80;99.90;;;;;;4981312;28;20443;-63
2021/05/12 09:18:59;;;;;;;5.90;4.57;;;13.90;99.90;;;;;;4981960;28;20453;-63
2021/05/12 09:21:41;;;;;;;3.93;3.50;;;14.00;99.90;;;;;;4981141;28;20443;-63
2021/05/12 09:24:18;;;;;;;5.43;3.37;;;14.00;99.90;;;;;;4982498;28;20486;-63
2021/05/12 09:26:45;;;;;;;5.53;4.20;;;14.10;99.90;;;;;;4981564;28;20538;-63
2021/05/12 09:29:12;;;;;;;4.50;4.10;;;14.10;99.90;;;;;;4981549;28;20925;-63
2021/05/12 09:31:39;;;;;;;8.30;4.50;;;14.20;99.90;;;;;;4979950;28;20459;-63
2021/05/12 09:34:06;;;;;;;5.20;4.33;;;14.00;99.90;;;;;;4980332;28;20478;-63
2021/05/12 09:36:33;;;;;;;5.37;4.03;;;14.20;99.90;;;;;;4984263;28;20509;-63
2021/05/12 09:38:59;;;;;;;4.20;3.90;;;14.20;99.90;;;;;;4985909;28;20493;-63
2021/05/12 09:41:36;;;;;;;4.47;4.07;;;14.30;99.90;;;;;;4992116;28;20541;-64
2021/05/12 09:44:05;;;;;;;4.17;3.33;;;14.40;99.90;;;;;;4981228;28;20482;-63
2021/05/12 09:46:34;;;;;;;7.43;5.57;;;14.50;99.90;;;;;;4979628;28;20490;-63
2021/05/12 09:49:12;;;;;;;3.83;3.47;;;14.60;99.90;;;;;;4979962;28;20964;-64
2021/05/12 09:51:40;;;;;;;4.00;3.70;;;14.70;99.90;;;;;;4980504;28;20435;-63
2021/05/12 09:54:09;;;;;;;5.13;3.50;;;14.60;99.90;;;;;;4979374;28;20475;-63
2021/05/12 09:56:40;;;;;;;3.47;3.17;;;14.70;99.90;;;;;;4980492;28;20467;-63
2021/05/12 09:59:08;;;;;;;4.53;4.23;;;14.90;99.90;;;;;;4983773;28;20447;-63
2021/05/12 10:01:47;;;;;;;4.03;3.80;;;14.90;99.90;;;;;;4980412;28;20474;-64
2021/05/12 10:04:30;;;;;;;4.47;3.50;;;14.90;99.90;;;;;;4980333;28;20478;-63
2021/05/12 10:06:57;;;;;;;6.73;4.20;;;15.00;99.90;;;;;;4979307;28;20467;-63
2021/05/12 10:09:25;;;;;;;4.37;3.93;;;15.20;99.90;;;;;;4979250;28;20459;-63
2021/05/12 10:12:09;;;;;;;3.80;3.50;;;15.20;99.90;;;;;;4979261;28;21008;-63
2021/05/12 10:14:38;;;;;;;4.60;4.33;;;15.20;99.90;;;;;;4978881;28;20478;-63
2021/05/12 10:17:05;;;;;;;5.80;4.37;;;15.30;99.90;;;;;;4979517;28;20952;-63
2021/05/12 10:19:33;;;;;;;4.93;4.53;;;15.40;99.90;;;;;;4979568;28;20435;-63
2021/05/12 10:22:01;;;;;;;6.90;4.60;;;15.50;99.90;;;;;;4979866;28;20458;-64
2021/05/12 10:24:27;;;;;;;4.23;3.83;;;15.70;99.90;;;;;;4983336;28;20505;-63
2021/05/12 10:26:54;;;;;;;3.80;3.50;;;15.80;99.90;;;;;;4988015;28;20533;-62
2021/05/12 10:29:21;;;;;;;5.63;3.70;;;16.00;99.90;;;;;;4985829;28;20459;-61
2021/05/12 10:31:49;;;;;;;5.67;5.27;;;15.80;99.90;;;;;;4986613;28;20450;-63
2021/05/12 10:37:21;;;;;;;7.50;5.00;;;16.50;99.90;;;;;;5382889;23;20840;-61
2021/05/12 10:39:53;;;;;;;4.43;4.03;;;16.90;99.90;;;;;;4978035;28;20509;-61
2021/05/12 10:42:52;;;;;;;5.03;4.17;;;17.00;99.90;;;;;;4978106;28;20469;-62
2021/05/12 10:45:21;;;;;;;3.50;3.10;;;17.40;99.90;;;;;;4978004;28;20439;-60
2021/05/12 10:47:49;;;;;;;5.67;3.63;;;17.20;99.90;;;;;;4960033;29;20479;-62
2021/05/12 10:50:15;;;;;;;4.10;3.80;;;17.30;99.90;;;;;;4959700;29;20454;-63
2021/05/12 10:53:22;;;;;;;4.90;4.40;;;17.00;99.90;;;;;;4960452;29;20459;-64
2021/05/12 10:56:06;;;;;;;4.20;3.80;;;16.80;99.90;;;;;;4952329;29;20479;-63
2021/05/12 10:58:37;;;;;;;3.80;3.40;;;16.70;99.90;;;;;;4962524;29;20436;-63
2021/05/12 11:01:05;;;;;;;4.33;3.87;;;16.30;99.90;;;;;;4963100;29;20439;-63
2021/05/12 11:04:12;;;;;;;4.40;4.00;;;16.20;99.90;;;;;;4965087;29;20455;-63
2021/05/12 11:06:59;;;;;;;4.37;4.07;;;16.00;99.90;;;;;;4966716;29;20479;-63
2021/05/12 11:09:50;;;;;;;5.93;4.33;;;15.90;99.90;;;;;;4967268;29;20459;-64
2021/05/12 11:12:30;;;;;;;4.20;3.80;;;15.60;99.90;;;;;;4965945;29;20458;-64
2021/05/12 11:15:02;;;;;;;5.13;4.30;;;15.50;99.90;;;;;;4963051;29;20463;-64
2021/05/12 11:17:46;;;;;;;5.73;4.27;;;15.40;99.90;;;;;;4968183;29;20478;-63
2021/05/12 11:20:21;;;;;;;4.00;3.70;;;15.40;99.90;;;;;;4969466;29;20467;-63
2021/05/12 11:22:50;;;;;;;5.27;4.00;;;15.30;99.90;;;;;;4966422;29;20532;-62
2021/05/12 11:25:25;;;;;;;7.07;3.80;;;15.60;99.90;;;;;;4961599;29;20471;-62
2021/05/12 11:33:49;;;;;;;7.90;4.40;;;16.40;99.90;;;;;;4952108;28;20451;-61
2021/05/12 11:36:17;;;;;;;4.33;3.93;;;16.50;99.90;;;;;;4959536;29;20499;-64
2021/05/12 11:38:44;;;;;;;5.40;4.67;;;16.70;99.90;;;;;;4959298;29;20961;-63
2021/05/12 11:41:13;;;;;;;4.50;4.10;;;16.70;99.90;;;;;;4959575;29;20471;-63
2021/05/12 11:43:42;;;;;;;4.63;4.23;;;16.60;99.90;;;;;;4960116;29;20796;-64
2021/05/12 11:46:10;;;;;;;4.53;4.20;;;16.50;99.90;;;;;;4959374;29;20502;-62
2021/05/12 11:48:38;;;;;;;7.40;4.87;;;16.70;99.90;;;;;;4958853;29;20463;-63
2021/05/12 11:51:05;;;;;;;6.73;4.70;;;16.60;99.90;;;;;;4959626;29;20455;-64
2021/05/12 11:53:35;;;;;;;4.73;4.33;;;16.50;99.90;;;;;;4959578;29;20946;-63
2021/05/12 11:56:01;;;;;;;5.53;4.43;;;16.40;99.90;;;;;;4959600;29;20478;-63
2021/05/12 11:58:28;;;;;;;7.57;4.70;;;16.10;99.90;;;;;;4958604;29;20965;-63
2021/05/12 12:01:04;;;;;;;4.63;4.10;;;15.80;99.90;;;;;;4958342;29;20489;-64
2021/05/12 12:03:31;;;;;;;5.67;5.17;;;15.80;99.90;;;;;;4959592;29;20550;-64
2021/05/12 12:06:03;;;;;;;4.93;4.47;;;15.80;99.90;;;;;;4958180;29;20475;-63
2021/05/12 12:08:30;;;;;;;5.20;4.73;;;15.90;99.90;;;;;;4959522;29;20459;-63
2021/05/12 12:11:07;;;;;;;5.50;4.90;;;16.00;99.90;;;;;;4959491;29;20470;-63
2021/05/12 12:13:34;;;;;;;4.33;4.03;;;16.20;99.90;;;;;;4958736;28;20463;-63
2021/05/12 12:16:01;;;;;;;18.43;4.90;;;16.20;99.90;;;;;;4957670;29;20475;-63
2021/05/12 12:18:29;;;;;;;4.97;4.47;;;16.30;99.90;;;;;;4958437;29;20851;-63
2021/05/12 12:20:55;;;;;;;7.53;5.07;;;16.30;99.90;;;;;;4958298;29;20459;-63
2021/05/12 12:23:26;;;;;;;5.33;4.93;;;16.40;99.90;;;;;;4958621;29;20825;-64
2021/05/12 12:26:14;;;;;;;8.67;5.20;;;16.30;99.90;;;;;;4959050;29;20480;-63
2021/05/12 12:28:46;;;;;;;5.27;4.77;;;16.40;99.90;;;;;;4958986;29;20851;-63
2021/05/12 12:31:15;;;;;;;5.80;4.70;;;16.60;99.90;;;;;;4959223;29;20827;-64
2021/05/12 12:33:41;;;;;;;5.43;4.70;;;16.60;99.90;;;;;;4958854;29;21017;-63
2021/05/12 12:36:10;;;;;;;5.23;4.90;;;16.70;99.90;;;;;;4957363;29;20483;-63
2021/05/12 12:38:48;;;;;;;7.00;4.63;;;16.70;99.90;;;;;;4958652;29;20455;-63
2021/05/12 12:41:15;;;;;;;4.57;4.17;;;16.70;99.90;;;;;;4959591;28;20443;-64
2021/05/12 12:43:42;;;;;;;7.30;5.27;;;16.80;99.90;;;;;;4963002;29;20946;-64
2021/05/12 12:46:08;;;;;;;6.20;4.77;;;17.10;99.90;;;;;;4963065;29;20487;-64
2021/05/12 12:48:36;;;;;;;4.93;4.53;;;17.10;99.90;;;;;;4962948;29;20439;-64
2021/05/12 12:51:03;;;;;;;5.30;4.80;;;17.10;99.90;;;;;;4964292;29;20678;-63
2021/05/12 12:53:30;;;;;;;5.20;4.47;;;17.00;99.90;;;;;;4963820;29;20447;-63
2021/05/12 12:56:07;;;;;;;5.43;4.80;;;17.10;99.90;;;;;;4961875;29;20977;-65
2021/05/12 12:58:33;;;;;;;5.40;4.60;;;17.10;99.90;;;;;;4960970;29;20447;-63
2021/05/12 13:01:00;;;;;;;4.10;3.70;;;17.10;99.90;;;;;;4960864;29;20451;-64
2021/05/12 13:03:26;;;;;;;6.00;4.90;;;17.10;99.90;;;;;;4966524;29;20467;-64
2021/05/12 13:05:54;;;;;;;4.30;4.00;;;17.20;99.90;;;;;;4963032;29;20499;-65
2021/05/12 13:08:23;;;;;;;4.03;3.63;;;17.10;99.90;;;;;;4960623;29;20479;-63
2021/05/12 13:10:51;;;;;;;4.73;4.10;;;17.20;99.90;;;;;;4960845;29;20802;-64
2021/05/12 13:13:26;;;;;;;4.53;4.13;;;17.20;99.90;;;;;;4960530;29;20550;-65
2021/05/12 13:15:53;;;;;;;4.57;4.10;;;17.30;99.90;;;;;;4960535;29;20489;-63
2021/05/12 13:18:28;;;;;;;8.27;4.63;;;17.10;99.90;;;;;;4960615;29;20807;-64
2021/05/12 13:20:56;;;;;;;6.03;3.77;;;16.90;99.90;;;;;;4960358;29;20463;-64
2021/05/12 13:23:25;;;;;;;5.77;3.80;;;17.00;99.90;;;;;;4960913;29;20455;-63
2021/05/12 13:25:52;;;;;;;3.73;3.43;;;17.10;99.90;;;;;;4961679;29;20475;-63
2021/05/12 13:28:21;;;;;;;8.73;5.00;;;17.00;99.90;;;;;;4964511;29;20490;-63
2021/05/12 13:30:48;;;;;;;6.53;3.73;;;17.00;99.90;;;;;;4967277;29;20460;-64
2021/05/12 13:33:15;;;;;;;4.80;4.40;;;17.00;99.90;;;;;;4967526;29;20459;-64
2021/05/12 13:35:42;;;;;;;4.73;4.23;;;17.00;99.90;;;;;;4963622;29;20515;-63
2021/05/12 13:38:09;;;;;;;5.90;4.43;;;16.60;99.90;;;;;;4959017;29;20507;-63
2021/05/12 13:40:35;;;;;;;5.20;4.70;;;16.50;99.90;;;;;;4960581;29;20950;-63
2021/05/12 13:43:03;;;;;;;4.90;3.90;;;16.30;99.90;;;;;;4959347;29;20455;-64
2021/05/12 13:45:30;;;;;;;3.97;3.60;;;16.40;99.90;;;;;;4962796;29;20531;-63
2021/05/12 13:47:56;;;;;;;5.43;4.10;;;16.40;99.90;;;;;;4964550;29;20522;-64
2021/05/12 13:50:26;;;;;;;4.70;4.10;;;16.50;99.90;;;;;;4959288;29;20491;-63
2021/05/12 13:52:57;;;;;;;5.63;4.17;;;16.50;99.90;;;;;;4959083;28;20468;-63
2021/05/12 13:55:29;;;;;;;6.67;4.00;;;16.60;99.90;;;;;;4959068;29;20534;-63
2021/05/12 14:03:52;;;;;;;4.40;4.00;;;16.60;99.90;;;;;;4958772;29;20544;-64
2021/05/12 14:06:25;;;;;;;5.03;4.30;;;16.50;99.90;;;;;;4959029;29;20479;-64
2021/05/12 14:08:53;;;;;;;4.27;3.87;;;16.80;99.90;;;;;;4958760;29;20444;-65
2021/05/12 14:11:22;;;;;;;4.47;4.07;;;16.90;99.90;;;;;;4958941;29;20487;-63
2021/05/12 14:13:48;;;;;;;5.80;4.10;;;16.90;99.90;;;;;;4958727;29;20470;-63
2021/05/12 14:16:27;;;;;;;5.13;4.27;;;16.80;99.90;;;;;;4958637;29;20859;-63
2021/05/12 14:18:54;;;;;;;4.97;4.57;;;16.80;99.90;;;;;;4958803;29;20450;-64
2021/05/12 14:21:20;;;;;;;6.07;5.47;;;16.50;99.90;;;;;;4958592;29;20519;-64
2021/05/12 14:23:47;;;;;;;6.83;5.20;;;16.40;99.90;;;;;;4958584;29;20492;-64
2021/05/12 14:26:14;;;;;;;6.77;4.83;;;15.90;99.90;;;;;;4958259;29;20475;-64
2021/05/12 14:28:51;;;;;;;5.20;4.70;;;15.80;99.90;;;;;;4958110;29;20546;-64
2021/05/12 14:31:17;;;;;;;5.80;4.43;;;16.10;99.90;;;;;;4958312;29;20498;-64
2021/05/12 14:33:44;;;;;;;6.00;4.70;;;16.30;99.90;;;;;;4959717;29;21009;-64
2021/05/12 14:36:10;;;;;;;5.40;4.80;;;16.10;99.90;;;;;;4964638;29;20515;-64
2021/05/12 14:38:37;;;;;;;4.80;4.40;;;16.10;99.90;;;;;;4958593;29;20463;-64
2021/05/12 14:41:04;;;;;;;4.30;4.00;;;15.70;99.90;;;;;;4958462;29;20858;-64
2021/05/12 14:43:30;;;;;;;4.43;4.00;;;16.00;99.90;;;;;;4958206;29;20550;-63
2021/05/12 14:45:57;;;;;;;4.30;3.90;;;16.20;99.90;;;;;;4957630;29;21024;-65
2021/05/12 14:48:27;;;;;;;4.80;4.40;;;16.20;99.90;;;;;;4957785;29;20479;-65
2021/05/12 14:50:55;;;;;;;7.10;4.30;;;16.20;99.90;;;;;;4957832;29;20906;-65
2021/05/12 14:53:25;;;;;;;4.30;3.57;;;16.20;99.90;;;;;;4958114;29;20888;-65
2021/05/12 14:56:11;;;;;;;5.07;4.50;;;16.30;99.90;;;;;;4957919;29;20480;-65
2021/05/12 14:59:05;;;;;;;6.37;3.80;;;16.20;99.90;;;;;;4958437;29;20468;-65
2021/05/12 15:04:33;;;;;;;5.50;4.60;;;16.20;99.90;;;;;;4953355;28;20974;-65
2021/05/12 15:06:59;;;;;;;4.90;4.40;;;16.50;99.90;;;;;;4957691;29;20490;-64
2021/05/12 15:09:25;;;;;;;5.63;4.40;;;16.70;99.90;;;;;;4958287;29;20444;-65
2021/05/12 15:11:51;;;;;;;4.57;3.90;;;16.70;99.90;;;;;;4958062;29;20208;-65
2021/05/12 15:14:17;;;;;;;5.90;3.73;;;16.80;99.90;;;;;;4957865;29;20466;-64
2021/05/12 15:16:44;;;;;;;4.30;3.60;;;16.90;99.90;;;;;;4958586;29;20499;-65
2021/05/12 15:19:11;;;;;;;5.40;3.80;;;16.90;99.90;;;;;;4958100;29;20459;-64
2021/05/12 15:21:37;;;;;;;5.80;4.40;;;17.10;99.90;;;;;;4957419;29;20460;-64
2021/05/12 15:24:04;;;;;;;5.37;4.63;;;17.10;99.90;;;;;;4956897;29;20463;-64
2021/05/12 15:26:30;;;;;;;5.83;5.07;;;17.10;99.90;;;;;;4957517;29;20876;-64
2021/05/12 15:28:57;;;;;;;5.10;4.63;;;16.90;99.90;;;;;;4957645;29;20456;-64
2021/05/12 15:31:23;;;;;;;6.20;4.90;;;16.70;99.90;;;;;;4958535;29;20471;-64
2021/05/12 15:33:52;;;;;;;6.00;5.03;;;16.60;99.90;;;;;;4958252;29;20807;-64
2021/05/12 15:36:19;;;;;;;8.37;4.70;;;16.50;99.90;;;;;;4957479;29;20483;-64
2021/05/12 15:38:45;;;;;;;5.70;4.47;;;16.60;99.90;;;;;;4957587;29;20479;-64
2021/05/12 15:41:11;;;;;;;5.57;5.00;;;16.40;99.90;;;;;;4957478;29;20605;-65
2021/05/12 15:43:38;;;;;;;5.60;5.10;;;16.40;99.90;;;;;;4957711;29;20460;-65
2021/05/12 15:46:06;;;;;;;5.43;4.90;;;16.20;99.90;;;;;;4957161;29;20541;-65
2021/05/12 15:48:32;;;;;;;4.90;4.50;;;16.20;99.90;;;;;;4956968;29;20515;-65
2021/05/12 15:50:59;;;;;;;6.73;5.03;;;16.30;99.90;;;;;;4956869;29;20459;-64
2021/05/12 15:53:26;;;;;;;6.00;4.13;;;16.30;99.90;;;;;;4956785;29;20456;-64
2021/05/12 15:55:53;;;;;;;4.70;4.13;;;16.40;99.90;;;;;;4956895;29;20475;-64
2021/05/12 15:58:19;;;;;;;4.27;3.90;;;16.50;99.90;;;;;;4956949;29;20473;-65
2021/05/12 16:00:45;;;;;;;4.87;4.00;;;16.60;99.90;;;;;;4956312;29;20455;-65
2021/05/12 16:03:12;;;;;;;6.37;4.10;;;16.60;99.90;;;;;;4956875;29;20462;-65
2021/05/12 16:05:39;;;;;;;4.80;4.30;;;16.50;99.90;;;;;;4958825;29;20455;-64
2021/05/12 16:08:06;;;;;;;4.47;4.07;;;16.60;99.90;;;;;;4965194;29;20920;-64
2021/05/12 16:10:35;;;;;;;4.77;3.57;;;16.70;99.90;;;;;;4956667;29;20510;-64
2021/05/12 16:13:02;;;;;;;3.97;3.67;;;16.70;99.90;;;;;;4956652;29;20544;-63
2021/05/12 16:15:28;;;;;;;5.23;3.40;;;16.60;99.90;;;;;;4956651;29;20444;-64
2021/05/12 16:17:55;;;;;;;7.83;3.80;;;16.60;99.90;;;;;;4955498;28;20539;-64
2021/05/12 16:20:21;;;;;;;6.90;4.57;;;16.70;99.90;;;;;;4956818;29;20455;-64
2021/05/12 16:22:47;;;;;;;4.63;3.73;;;16.70;99.90;;;;;;4956629;29;20506;-65
2021/05/12 16:25:16;;;;;;;2.93;2.73;;;16.70;99.90;;;;;;4956121;29;20468;-64
2021/05/12 16:27:42;;;;;;;4.07;3.67;;;16.60;99.90;;;;;;4956202;29;20483;-64
2021/05/12 16:30:10;;;;;;;6.13;4.17;;;16.60;99.90;;;;;;4956080;29;21017;-64
2021/05/12 16:32:36;;;;;;;6.40;3.67;;;16.60;99.90;;;;;;4956149;29;20451;-64
2021/05/12 16:35:04;;;;;;;6.70;3.90;;;16.70;99.90;;;;;;4956004;29;20954;-64
2021/05/12 16:37:32;;;;;;;5.00;3.50;;;16.80;99.90;;;;;;4955801;29;20507;-64
2021/05/12 16:39:58;;;;;;;5.07;3.30;;;16.80;99.90;;;;;;4956070;29;20935;-64
2021/05/12 16:42:25;;;;;;;5.47;3.20;;;17.00;99.90;;;;;;4957865;29;20773;-64
2021/05/12 16:44:52;;;;;;;3.53;3.23;;;16.90;99.90;;;;;;4956845;29;20478;-65
2021/05/12 16:47:18;;;;;;;3.80;3.50;;;16.90;99.90;;;;;;4956311;29;20887;-64
2021/05/12 16:49:46;;;;;;;4.83;2.93;;;17.00;99.90;;;;;;4956618;29;20791;-64
2021/05/12 16:52:13;;;;;;;2.60;2.37;;;17.10;99.90;;;;;;4956117;29;20550;-64
2021/05/12 16:54:40;;;;;;;5.03;2.83;;;17.20;99.90;;;;;;4956615;29;20459;-63
2021/05/12 16:57:06;;;;;;;7.27;3.23;;;17.10;99.90;;;;;;4956313;29;20482;-66
2021/05/12 16:59:33;;;;;;;3.43;3.13;;;17.10;99.90;;;;;;4957583;29;20466;-64
2021/05/12 17:02:00;;;;;;;3.30;3.00;;;17.20;99.90;;;;;;4957116;29;20455;-64
2021/05/12 17:04:26;;;;;;;9.43;4.27;;;17.20;99.90;;;;;;4957357;29;20600;-65
2021/05/12 17:06:53;;;;;;;3.40;3.10;;;17.20;99.90;;;;;;4956598;29;20514;-65
2021/05/12 17:09:20;;;;;;;3.67;3.30;;;17.10;99.90;;;;;;4956320;29;20455;-64
2021/05/12 17:11:53;;;;;;;3.93;2.70;;;17.10;99.90;;;;;;4956981;29;20440;-64
2021/05/12 17:14:19;;;;;;;3.03;2.70;;;17.00;99.90;;;;;;4958761;29;20443;-65
2021/05/12 17:16:46;;;;;;;5.93;3.07;;;17.00;99.90;;;;;;4956221;29;20952;-66
2021/05/12 17:19:13;;;;;;;3.50;2.70;;;17.00;99.90;;;;;;4960855;29;20474;-64